sensor_id;sensor_type;location;lat;lon;timestamp;pressure;altitude;pressure_sealevel;temperature;humidity
60019;BME280;45870;42.528;26.740;2022-10-16T00:01:20;100406.63;;;17.27;44.48
60019;BME280;45870;42.528;26.740;2022-10-16T00:03:47;100333.84;;;17.01;43.58
60019;BME280;45870;42.528;26.740;2022-10-16T00:06:14;100422.94;;;17.54;43.56
60019;BME280;45870;42.528;26.740;2022-10-16T00:08:40;100421.72;;;17.40;43.76
60019;BME280;45870;42.528;26.740;2022-10-16T00:11:12;100420.28;;;17.64;43.77
60019;BME280;45870;42.528;26.740;2022-10-16T00:13:39;100414.25;;;17.57;44.14
60019;BME280;45870;42.528;26.740;2022-10-16T00:16:05;100420.06;;;17.71;44.02
60019;BME280;45870;42.528;26.740;2022-10-16T00:18:32;100420.53;;;17.63;44.65
60019;BME280;45870;42.528;26.740;2022-10-16T00:21:06;100424.41;;;17.67;43.75
60019;BME280;45870;42.528;26.740;2022-10-16T00:23:32;100211.91;;;16.28;43.70
60019;BME280;45870;42.528;26.740;2022-10-16T00:26:01;100430.88;;;17.24;44.45
60019;BME280;45870;42.528;26.740;2022-10-16T00:28:27;100430.38;;;17.00;45.40
60019;BME280;45870;42.528;26.740;2022-10-16T00:30:53;100380.28;;;17.11;44.65
60019;BME280;45870;42.528;26.740;2022-10-16T00:33:20;100386.56;;;17.12;43.89
60019;BME280;45870;42.528;26.740;2022-10-16T00:35:46;100424.22;;;17.41;43.58
60019;BME280;45870;42.528;26.740;2022-10-16T00:38:12;100429.56;;;17.31;44.68
60019;BME280;45870;42.528;26.740;2022-10-16T00:40:38;100419.09;;;17.18;45.35
60019;BME280;45870;42.528;26.740;2022-10-16T00:43:13;100420.06;;;17.07;45.04
60019;BME280;45870;42.528;26.740;2022-10-16T00:45:40;100422.94;;;17.22;44.82
60019;BME280;45870;42.528;26.740;2022-10-16T00:48:11;100422.13;;;17.22;45.21
60019;BME280;45870;42.528;26.740;2022-10-16T00:50:39;100427.19;;;17.08;45.80
60019;BME280;45870;42.528;26.740;2022-10-16T00:53:08;100430.09;;;17.28;45.22
60019;BME280;45870;42.528;26.740;2022-10-16T00:55:35;100431.06;;;17.49;45.27
60019;BME280;45870;42.528;26.740;2022-10-16T00:58:01;100376.72;;;17.06;45.48
60019;BME280;45870;42.528;26.740;2022-10-16T01:00:27;100424.69;;;17.38;45.17
60019;BME280;45870;42.528;26.740;2022-10-16T01:02:54;100412.16;;;17.37;44.84
60019;BME280;45870;42.528;26.740;2022-10-16T01:05:38;100420.75;;;17.19;44.67
60019;BME280;45870;42.528;26.740;2022-10-16T01:08:18;100374.00;;;16.79;45.39
60019;BME280;45870;42.528;26.740;2022-10-16T01:10:54;100435.06;;;17.05;45.99
60019;BME280;45870;42.528;26.740;2022-10-16T01:13:33;100436.06;;;16.72;45.71
60019;BME280;45870;42.528;26.740;2022-10-16T01:18:44;100407.50;;;16.74;46.79
60019;BME280;45870;42.528;26.740;2022-10-16T01:21:28;100439.22;;;16.85;46.89
60019;BME280;45870;42.528;26.740;2022-10-16T01:32:47;100435.41;;;16.60;46.51
60019;BME280;45870;42.528;26.740;2022-10-16T01:35:25;100435.47;;;16.43;47.37
60019;BME280;45870;42.528;26.740;2022-10-16T01:40:27;100441.69;;;16.60;46.04
60019;BME280;45870;42.528;26.740;2022-10-16T01:43:02;100448.75;;;16.83;45.55
60019;BME280;45870;42.528;26.740;2022-10-16T01:45:30;100440.28;;;16.58;46.19
60019;BME280;45870;42.528;26.740;2022-10-16T01:47:58;100436.81;;;16.02;47.11
60019;BME280;45870;42.528;26.740;2022-10-16T01:50:26;100448.25;;;16.42;45.99
60019;BME280;45870;42.528;26.740;2022-10-16T01:52:54;100410.75;;;16.49;45.28
60019;BME280;45870;42.528;26.740;2022-10-16T01:55:26;100461.22;;;16.79;45.14
60019;BME280;45870;42.528;26.740;2022-10-16T01:57:56;100452.72;;;16.70;45.75
60019;BME280;45870;42.528;26.740;2022-10-16T02:00:23;100432.22;;;16.46;43.73
60019;BME280;45870;42.528;26.740;2022-10-16T02:02:52;100477.44;;;15.87;46.11
60019;BME280;45870;42.528;26.740;2022-10-16T02:05:27;100461.47;;;14.04;51.11
60019;BME280;45870;42.528;26.740;2022-10-16T02:07:54;100463.50;;;14.88;48.04
60019;BME280;45870;42.528;26.740;2022-10-16T02:10:20;100459.00;;;14.94;46.73
60019;BME280;45870;42.528;26.740;2022-10-16T02:12:56;100466.78;;;14.74;46.48
60019;BME280;45870;42.528;26.740;2022-10-16T02:15:24;100461.06;;;14.47;46.62
60019;BME280;45870;42.528;26.740;2022-10-16T02:17:49;100440.56;;;14.16;46.90
60019;BME280;45870;42.528;26.740;2022-10-16T02:20:15;100424.28;;;14.05;46.75
60019;BME280;45870;42.528;26.740;2022-10-16T02:22:47;100405.22;;;13.88;47.01
60019;BME280;45870;42.528;26.740;2022-10-16T02:25:34;100479.22;;;14.58;46.88
60019;BME280;45870;42.528;26.740;2022-10-16T02:28:08;100468.28;;;14.41;46.69
60019;BME280;45870;42.528;26.740;2022-10-16T02:30:51;100480.72;;;14.14;46.86
60019;BME280;45870;42.528;26.740;2022-10-16T02:33:21;100484.88;;;13.82;47.92
60019;BME280;45870;42.528;26.740;2022-10-16T02:35:49;100487.09;;;13.73;47.83
60019;BME280;45870;42.528;26.740;2022-10-16T02:38:17;100479.53;;;13.64;48.04
60019;BME280;45870;42.528;26.740;2022-10-16T02:40:43;100328.44;;;12.83;47.59
60019;BME280;45870;42.528;26.740;2022-10-16T02:43:09;100486.84;;;13.63;47.91
60019;BME280;45870;42.528;26.740;2022-10-16T02:45:36;100485.44;;;13.72;47.84
60019;BME280;45870;42.528;26.740;2022-10-16T02:48:02;100486.97;;;13.57;47.94
60019;BME280;45870;42.528;26.740;2022-10-16T02:50:27;100492.38;;;13.33;48.02
60019;BME280;45870;42.528;26.740;2022-10-16T02:52:53;100489.41;;;13.35;47.85
60019;BME280;45870;42.528;26.740;2022-10-16T02:55:19;100482.69;;;13.37;47.88
60019;BME280;45870;42.528;26.740;2022-10-16T02:57:44;100498.94;;;13.37;47.87
60019;BME280;45870;42.528;26.740;2022-10-16T03:00:13;100497.41;;;13.30;48.11
60019;BME280;45870;42.528;26.740;2022-10-16T03:02:39;100492.00;;;13.30;48.33
60019;BME280;45870;42.528;26.740;2022-10-16T03:05:06;100492.50;;;13.09;48.80
60019;BME280;45870;42.528;26.740;2022-10-16T03:07:32;100475.00;;;12.93;48.61
60019;BME280;45870;42.528;26.740;2022-10-16T03:09:59;100498.59;;;13.22;48.06
60019;BME280;45870;42.528;26.740;2022-10-16T03:12:28;100500.78;;;12.95;47.64
60019;BME280;45870;42.528;26.740;2022-10-16T03:14:55;100504.59;;;13.06;47.75
60019;BME280;45870;42.528;26.740;2022-10-16T03:17:22;100396.53;;;12.27;47.65
60019;BME280;45870;42.528;26.740;2022-10-16T03:19:47;100508.38;;;13.35;47.48
60019;BME280;45870;42.528;26.740;2022-10-16T03:22:13;100511.72;;;12.89;48.34
60019;BME280;45870;42.528;26.740;2022-10-16T03:24:39;100510.38;;;12.98;47.90
60019;BME280;45870;42.528;26.740;2022-10-16T03:27:06;100518.91;;;12.83;48.22
60019;BME280;45870;42.528;26.740;2022-10-16T03:29:32;100482.13;;;12.58;48.01
60019;BME280;45870;42.528;26.740;2022-10-16T03:31:58;100527.72;;;12.79;47.94
60019;BME280;45870;42.528;26.740;2022-10-16T03:34:24;100526.50;;;12.75;47.87
60019;BME280;45870;42.528;26.740;2022-10-16T03:36:51;100527.59;;;12.56;46.86
60019;BME280;45870;42.528;26.740;2022-10-16T03:39:17;100521.56;;;12.53;47.58
60019;BME280;45870;42.528;26.740;2022-10-16T03:41:43;100528.72;;;12.48;47.91
60019;BME280;45870;42.528;26.740;2022-10-16T03:44:09;100524.94;;;12.67;47.04
60019;BME280;45870;42.528;26.740;2022-10-16T03:46:34;100510.22;;;12.45;48.04
60019;BME280;45870;42.528;26.740;2022-10-16T03:49:00;100521.06;;;12.45;47.66
60019;BME280;45870;42.528;26.740;2022-10-16T03:51:26;100523.66;;;12.33;47.15
60019;BME280;45870;42.528;26.740;2022-10-16T03:53:53;100500.06;;;12.22;47.20
60019;BME280;45870;42.528;26.740;2022-10-16T03:56:18;100527.88;;;12.47;46.78
60019;BME280;45870;42.528;26.740;2022-10-16T03:58:44;100527.75;;;12.24;47.48
60019;BME280;45870;42.528;26.740;2022-10-16T04:01:09;100532.47;;;12.29;47.74
60019;BME280;45870;42.528;26.740;2022-10-16T04:03:35;100456.06;;;11.90;47.24
60019;BME280;45870;42.528;26.740;2022-10-16T04:06:01;100516.69;;;12.26;47.18
60019;BME280;45870;42.528;26.740;2022-10-16T04:08:27;100526.66;;;12.25;47.62
60019;BME280;45870;42.528;26.740;2022-10-16T04:10:53;100515.41;;;12.10;47.07
60019;BME280;45870;42.528;26.740;2022-10-16T04:13:19;100526.81;;;12.12;47.78
60019;BME280;45870;42.528;26.740;2022-10-16T04:15:45;100526.44;;;12.09;47.42
60019;BME280;45870;42.528;26.740;2022-10-16T04:18:11;100523.91;;;12.14;47.84
60019;BME280;45870;42.528;26.740;2022-10-16T04:20:37;100514.81;;;12.26;47.94
60019;BME280;45870;42.528;26.740;2022-10-16T04:23:03;100535.28;;;11.73;48.68
60019;BME280;45870;42.528;26.740;2022-10-16T04:25:30;100534.50;;;11.66;50.98
60019;BME280;45870;42.528;26.740;2022-10-16T04:27:56;100531.50;;;12.41;49.50
60019;BME280;45870;42.528;26.740;2022-10-16T04:30:22;100415.41;;;11.79;48.43
60019;BME280;45870;42.528;26.740;2022-10-16T04:32:50;100533.94;;;13.27;48.01
60019;BME280;45870;42.528;26.740;2022-10-16T04:35:17;100542.44;;;13.31;47.24
60019;BME280;45870;42.528;26.740;2022-10-16T04:37:43;100539.25;;;13.22;47.95
60019;BME280;45870;42.528;26.740;2022-10-16T04:40:09;100532.78;;;13.05;47.47
60019;BME280;45870;42.528;26.740;2022-10-16T04:42:35;100542.16;;;13.21;46.99
60019;BME280;45870;42.528;26.740;2022-10-16T04:45:01;100553.91;;;13.33;46.83
60019;BME280;45870;42.528;26.740;2022-10-16T04:47:27;100510.56;;;12.67;46.90
60019;BME280;45870;42.528;26.740;2022-10-16T04:49:53;100557.31;;;12.62;48.57
60019;BME280;45870;42.528;26.740;2022-10-16T04:52:18;100559.16;;;12.98;47.99
60019;BME280;45870;42.528;26.740;2022-10-16T04:54:44;100538.31;;;13.28;47.05
60019;BME280;45870;42.528;26.740;2022-10-16T04:57:11;100555.16;;;13.19;46.57
60019;BME280;45870;42.528;26.740;2022-10-16T04:59:37;100555.34;;;13.47;46.35
60019;BME280;45870;42.528;26.740;2022-10-16T05:02:03;100556.44;;;13.58;46.01
60019;BME280;45870;42.528;26.740;2022-10-16T05:04:29;100374.59;;;12.46;45.10
60019;BME280;45870;42.528;26.740;2022-10-16T05:06:54;100544.03;;;13.50;45.42
60019;BME280;45870;42.528;26.740;2022-10-16T05:09:20;100560.47;;;13.90;45.15
60019;BME280;45870;42.528;26.740;2022-10-16T05:11:46;100562.97;;;14.26;45.58
60019;BME280;45870;42.528;26.740;2022-10-16T05:14:11;100498.16;;;14.30;44.73
60019;BME280;45870;42.528;26.740;2022-10-16T05:16:37;100540.44;;;14.89;44.92
60019;BME280;45870;42.528;26.740;2022-10-16T05:19:03;100552.97;;;15.18;44.70
60019;BME280;45870;42.528;26.740;2022-10-16T05:21:29;100578.81;;;15.61;44.58
60019;BME280;45870;42.528;26.740;2022-10-16T05:23:54;100579.38;;;16.29;43.99
60019;BME280;45870;42.528;26.740;2022-10-16T05:26:20;100575.13;;;16.93;41.11
60019;BME280;45870;42.528;26.740;2022-10-16T05:28:46;100578.66;;;17.16;40.07
60019;BME280;45870;42.528;26.740;2022-10-16T05:31:12;100584.25;;;17.04;39.95
60019;BME280;45870;42.528;26.740;2022-10-16T05:33:38;100548.34;;;16.69;40.39
60019;BME280;45870;42.528;26.740;2022-10-16T05:36:05;100596.09;;;15.99;42.48
60019;BME280;45870;42.528;26.740;2022-10-16T05:38:33;100594.75;;;16.19;42.53
60019;BME280;45870;42.528;26.740;2022-10-16T05:40:59;100594.78;;;16.74;41.57
60019;BME280;45870;42.528;26.740;2022-10-16T05:43:26;100590.44;;;16.99;40.88
60019;BME280;45870;42.528;26.740;2022-10-16T05:46:01;100569.75;;;17.25;40.12
60019;BME280;45870;42.528;26.740;2022-10-16T05:48:27;100519.78;;;17.20;39.46
60019;BME280;45870;42.528;26.740;2022-10-16T05:50:58;100600.34;;;18.13;39.02
60019;BME280;45870;42.528;26.740;2022-10-16T05:53:27;100606.66;;;17.81;39.12
60019;BME280;45870;42.528;26.740;2022-10-16T05:55:55;100610.34;;;16.78;41.86
60019;BME280;45870;42.528;26.740;2022-10-16T05:58:21;100570.75;;;17.41;39.45
60019;BME280;45870;42.528;26.740;2022-10-16T06:00:58;100607.09;;;17.46;40.29
60019;BME280;45870;42.528;26.740;2022-10-16T06:03:25;100600.28;;;17.49;40.29
60019;BME280;45870;42.528;26.740;2022-10-16T06:05:51;100606.41;;;18.15;38.66
60019;BME280;45870;42.528;26.740;2022-10-16T06:08:18;100585.88;;;17.54;40.35
60019;BME280;45870;42.528;26.740;2022-10-16T06:10:44;100603.56;;;17.24;40.42
60019;BME280;45870;42.528;26.740;2022-10-16T06:13:11;100589.28;;;18.29;38.81
60019;BME280;45870;42.528;26.740;2022-10-16T06:15:38;100578.47;;;18.08;38.39
60019;BME280;45870;42.528;26.740;2022-10-16T06:18:05;100619.59;;;18.65;37.25
60019;BME280;45870;42.528;26.740;2022-10-16T06:20:31;100609.94;;;20.32;34.58
60019;BME280;45870;42.528;26.740;2022-10-16T06:22:57;100584.50;;;21.01;33.01
60019;BME280;45870;42.528;26.740;2022-10-16T06:25:25;100556.94;;;20.72;32.67
60019;BME280;45870;42.528;26.740;2022-10-16T06:27:51;100612.59;;;22.24;31.68
60019;BME280;45870;42.528;26.740;2022-10-16T06:30:16;100623.84;;;22.28;31.06
60019;BME280;45870;42.528;26.740;2022-10-16T06:32:42;100624.97;;;19.89;35.07
60019;BME280;45870;42.528;26.740;2022-10-16T06:35:08;100632.84;;;20.97;33.62
60019;BME280;45870;42.528;26.740;2022-10-16T06:37:34;100639.06;;;21.27;33.50
60019;BME280;45870;42.528;26.740;2022-10-16T06:40:00;100637.06;;;19.98;35.40
60019;BME280;45870;42.528;26.740;2022-10-16T06:42:25;100632.53;;;22.06;32.39
60019;BME280;45870;42.528;26.740;2022-10-16T06:44:51;100638.75;;;21.78;32.54
60019;BME280;45870;42.528;26.740;2022-10-16T06:47:17;100647.41;;;20.87;33.39
60019;BME280;45870;42.528;26.740;2022-10-16T06:49:43;100577.59;;;20.04;33.40
60019;BME280;45870;42.528;26.740;2022-10-16T06:52:08;100527.56;;;18.38;35.25
60019;BME280;45870;42.528;26.740;2022-10-16T06:54:34;100544.97;;;18.22;36.16
60019;BME280;45870;42.528;26.740;2022-10-16T06:57:00;100584.97;;;18.80;35.37
60019;BME280;45870;42.528;26.740;2022-10-16T06:59:27;100649.66;;;19.07;36.26
60019;BME280;45870;42.528;26.740;2022-10-16T07:01:52;100610.00;;;18.62;36.66
60019;BME280;45870;42.528;26.740;2022-10-16T07:04:18;100653.47;;;19.11;36.84
60019;BME280;45870;42.528;26.740;2022-10-16T07:06:44;100655.50;;;19.30;36.76
60019;BME280;45870;42.528;26.740;2022-10-16T07:09:10;100652.31;;;18.96;37.17
60019;BME280;45870;42.528;26.740;2022-10-16T07:11:38;100652.66;;;19.92;34.89
60019;BME280;45870;42.528;26.740;2022-10-16T07:14:05;100651.31;;;20.00;35.15
60019;BME280;45870;42.528;26.740;2022-10-16T07:16:37;100655.31;;;19.47;35.29
60019;BME280;45870;42.528;26.740;2022-10-16T07:19:03;100605.66;;;19.28;33.89
60019;BME280;45870;42.528;26.740;2022-10-16T07:21:32;100609.94;;;19.97;33.79
60019;BME280;45870;42.528;26.740;2022-10-16T07:24:01;100659.00;;;20.18;33.02
60019;BME280;45870;42.528;26.740;2022-10-16T07:26:29;100668.03;;;20.14;33.28
60019;BME280;45870;42.528;26.740;2022-10-16T07:28:56;100664.25;;;19.32;34.37
60019;BME280;45870;42.528;26.740;2022-10-16T07:31:22;100663.09;;;18.34;36.49
60019;BME280;45870;42.528;26.740;2022-10-16T07:33:48;100654.44;;;18.47;36.23
60019;BME280;45870;42.528;26.740;2022-10-16T07:36:15;100619.97;;;18.41;36.63
60019;BME280;45870;42.528;26.740;2022-10-16T07:38:42;100643.81;;;18.88;36.00
60019;BME280;45870;42.528;26.740;2022-10-16T07:41:11;100604.06;;;19.37;34.74
60019;BME280;45870;42.528;26.740;2022-10-16T07:43:37;100609.69;;;19.06;34.80
60019;BME280;45870;42.528;26.740;2022-10-16T07:46:03;100638.38;;;18.98;34.98
60019;BME280;45870;42.528;26.740;2022-10-16T07:48:31;100641.13;;;18.98;35.76
60019;BME280;45870;42.528;26.740;2022-10-16T07:51:05;100632.28;;;19.43;35.32
60019;BME280;45870;42.528;26.740;2022-10-16T07:53:31;100623.25;;;19.42;34.87
60019;BME280;45870;42.528;26.740;2022-10-16T07:56:02;100604.19;;;18.95;34.53
60019;BME280;45870;42.528;26.740;2022-10-16T07:58:28;100647.88;;;19.37;34.45
60019;BME280;45870;42.528;26.740;2022-10-16T08:00:55;100644.06;;;19.43;34.11
60019;BME280;45870;42.528;26.740;2022-10-16T08:03:21;100628.84;;;20.13;33.03
60019;BME280;45870;42.528;26.740;2022-10-16T08:05:48;100644.16;;;19.99;33.33
60019;BME280;45870;42.528;26.740;2022-10-16T08:08:15;100653.19;;;19.69;33.36
60019;BME280;45870;42.528;26.740;2022-10-16T08:10:41;100640.38;;;20.35;32.78
60019;BME280;45870;42.528;26.740;2022-10-16T08:13:07;100649.41;;;20.11;33.21
60019;BME280;45870;42.528;26.740;2022-10-16T08:15:34;100649.41;;;20.61;32.59
60019;BME280;45870;42.528;26.740;2022-10-16T08:18:02;100601.44;;;20.28;32.35
60019;BME280;45870;42.528;26.740;2022-10-16T08:20:29;100644.56;;;21.22;31.49
60019;BME280;45870;42.528;26.740;2022-10-16T08:22:55;100650.22;;;20.11;33.23
60019;BME280;45870;42.528;26.740;2022-10-16T08:25:22;100653.00;;;20.36;32.48
60019;BME280;45870;42.528;26.740;2022-10-16T08:27:49;100590.22;;;20.05;32.54
60019;BME280;45870;42.528;26.740;2022-10-16T08:30:17;100630.16;;;19.70;33.85
60019;BME280;45870;42.528;26.740;2022-10-16T08:32:43;100627.75;;;20.44;32.84
60019;BME280;45870;42.528;26.740;2022-10-16T08:35:10;100662.81;;;20.63;32.57
60019;BME280;45870;42.528;26.740;2022-10-16T08:37:36;100654.09;;;21.89;30.84
60019;BME280;45870;42.528;26.740;2022-10-16T08:40:04;100649.06;;;20.88;32.39
60019;BME280;45870;42.528;26.740;2022-10-16T08:50:40;100609.94;;;20.12;32.98
60019;BME280;45870;42.528;26.740;2022-10-16T08:53:09;100607.47;;;20.30;32.36
60019;BME280;45870;42.528;26.740;2022-10-16T08:55:44;100664.34;;;21.24;32.00
60019;BME280;45870;42.528;26.740;2022-10-16T08:58:23;100669.69;;;21.55;30.92
60019;BME280;45870;42.528;26.740;2022-10-16T09:00:56;100531.53;;;20.11;31.69
60019;BME280;45870;42.528;26.740;2022-10-16T09:06:00;100679.34;;;21.47;31.12
60019;BME280;45870;42.528;26.740;2022-10-16T09:14:20;100653.06;;;21.80;30.33
60019;BME280;45870;42.528;26.740;2022-10-16T09:16:59;100667.31;;;21.87;30.18
60019;BME280;45870;42.528;26.740;2022-10-16T09:19:37;100667.34;;;22.55;29.77
60019;BME280;45870;42.528;26.740;2022-10-16T09:22:15;100569.41;;;21.13;30.36
60019;BME280;45870;42.528;26.740;2022-10-16T09:24:42;100665.03;;;21.50;30.63
60019;BME280;45870;42.528;26.740;2022-10-16T09:27:12;100660.56;;;21.64;30.81
60019;BME280;45870;42.528;26.740;2022-10-16T09:29:39;100672.88;;;21.72;30.70
60019;BME280;45870;42.528;26.740;2022-10-16T09:32:14;100663.16;;;21.89;30.68
60019;BME280;45870;42.528;26.740;2022-10-16T09:34:45;100667.19;;;21.58;30.95
60019;BME280;45870;42.528;26.740;2022-10-16T09:37:16;100633.88;;;21.70;31.00
60019;BME280;45870;42.528;26.740;2022-10-16T09:39:49;100651.91;;;21.91;30.98
60019;BME280;45870;42.528;26.740;2022-10-16T09:42:27;100663.50;;;21.78;31.29
60019;BME280;45870;42.528;26.740;2022-10-16T09:44:56;100667.19;;;21.58;30.68
60019;BME280;45870;42.528;26.740;2022-10-16T09:47:28;100637.72;;;21.25;31.40
60019;BME280;45870;42.528;26.740;2022-10-16T09:49:56;100658.88;;;21.19;31.41
60019;BME280;45870;42.528;26.740;2022-10-16T09:52:24;100650.38;;;21.70;30.77
60019;BME280;45870;42.528;26.740;2022-10-16T09:54:58;100646.56;;;21.61;30.70
60019;BME280;45870;42.528;26.740;2022-10-16T09:57:24;100649.69;;;22.89;29.04
60019;BME280;45870;42.528;26.740;2022-10-16T09:59:56;100630.59;;;22.12;29.62
60019;BME280;45870;42.528;26.740;2022-10-16T10:02:35;100656.16;;;21.14;31.20
60019;BME280;45870;42.528;26.740;2022-10-16T10:05:05;100657.47;;;21.76;30.19
60019;BME280;45870;42.528;26.740;2022-10-16T10:07:43;100652.38;;;21.59;30.69
60019;BME280;45870;42.528;26.740;2022-10-16T10:10:23;100602.22;;;21.38;30.52
60019;BME280;45870;42.528;26.740;2022-10-16T10:12:49;100635.06;;;21.54;30.41
60019;BME280;45870;42.528;26.740;2022-10-16T10:15:15;100653.94;;;21.11;30.87
60019;BME280;45870;42.528;26.740;2022-10-16T10:17:54;100649.22;;;21.76;30.20
60019;BME280;45870;42.528;26.740;2022-10-16T10:20:35;100660.13;;;22.30;29.54
60019;BME280;45870;42.528;26.740;2022-10-16T10:23:22;100634.94;;;22.18;29.11
60019;BME280;45870;42.528;26.740;2022-10-16T10:25:54;100619.47;;;21.88;29.25
60019;BME280;45870;42.528;26.740;2022-10-16T10:28:46;100640.72;;;22.16;28.95
60019;BME280;45870;42.528;26.740;2022-10-16T10:31:44;100636.34;;;21.22;30.35
60019;BME280;45870;42.528;26.740;2022-10-16T10:34:35;100650.34;;;21.21;30.69
60019;BME280;45870;42.528;26.740;2022-10-16T10:39:50;100503.16;;;20.66;29.55
60019;BME280;45870;42.528;26.740;2022-10-16T10:42:50;100628.75;;;22.02;28.61
60019;BME280;45870;42.528;26.740;2022-10-16T10:45:28;100633.44;;;21.53;29.60
60019;BME280;45870;42.528;26.740;2022-10-16T10:53:40;100627.13;;;21.96;28.37
60019;BME280;45870;42.528;26.740;2022-10-16T10:56:43;100633.75;;;21.46;28.84
60019;BME280;45870;42.528;26.740;2022-10-16T10:59:17;100627.72;;;21.88;28.06
60019;BME280;45870;42.528;26.740;2022-10-16T11:01:56;100607.78;;;22.06;27.91
60019;BME280;45870;42.528;26.740;2022-10-16T11:04:41;100626.19;;;22.45;27.34
60019;BME280;45870;42.528;26.740;2022-10-16T11:09:45;100604.41;;;22.48;26.70
60019;BME280;45870;42.528;26.740;2022-10-16T11:14:48;100625.41;;;22.05;27.19
60019;BME280;45870;42.528;26.740;2022-10-16T11:17:23;100624.75;;;22.18;27.47
60019;BME280;45870;42.528;26.740;2022-10-16T11:19:53;100628.38;;;22.42;27.10
60019;BME280;45870;42.528;26.740;2022-10-16T11:22:30;100623.94;;;22.47;27.23
60019;BME280;45870;42.528;26.740;2022-10-16T11:25:02;100625.41;;;22.63;27.13
60019;BME280;45870;42.528;26.740;2022-10-16T11:27:43;100628.00;;;22.54;27.15
60019;BME280;45870;42.528;26.740;2022-10-16T11:30:22;100630.22;;;23.05;26.76
60019;BME280;45870;42.528;26.740;2022-10-16T11:35:51;100623.31;;;21.87;26.42
60019;BME280;45870;42.528;26.740;2022-10-16T11:46:51;100625.03;;;22.17;24.88
60019;BME280;45870;42.528;26.740;2022-10-16T11:49:22;100639.94;;;22.11;25.49
60019;BME280;45870;42.528;26.740;2022-10-16T11:55:20;100616.50;;;22.18;25.40
60019;BME280;45870;42.528;26.740;2022-10-16T11:57:54;100629.94;;;23.06;24.35
60019;BME280;45870;42.528;26.740;2022-10-16T12:08:11;100632.44;;;22.50;25.43
60019;BME280;45870;42.528;26.740;2022-10-16T12:10:39;100643.72;;;22.49;25.25
60019;BME280;45870;42.528;26.740;2022-10-16T12:16:04;100634.84;;;22.85;24.85
60019;BME280;45870;42.528;26.740;2022-10-16T12:18:32;100638.91;;;22.69;24.25
60019;BME280;45870;42.528;26.740;2022-10-16T12:20:59;100634.84;;;23.09;24.13
60019;BME280;45870;42.528;26.740;2022-10-16T12:23:32;100639.84;;;22.55;25.74
60019;BME280;45870;42.528;26.740;2022-10-16T12:25:59;100652.66;;;22.35;26.19
60019;BME280;45870;42.528;26.740;2022-10-16T12:28:30;100637.72;;;22.99;25.50
60019;BME280;45870;42.528;26.740;2022-10-16T12:31:06;100652.28;;;22.47;25.34
60019;BME280;45870;42.528;26.740;2022-10-16T12:33:41;100659.44;;;22.48;25.75
60019;BME280;45870;42.528;26.740;2022-10-16T12:36:15;100656.69;;;23.24;24.83
60019;BME280;45870;42.528;26.740;2022-10-16T12:38:52;100645.03;;;23.32;24.52
60019;BME280;45870;42.528;26.740;2022-10-16T12:41:33;100662.56;;;23.42;24.00
60019;BME280;45870;42.528;26.740;2022-10-16T12:44:01;100506.13;;;22.30;24.35
60019;BME280;45870;42.528;26.740;2022-10-16T12:51:41;100593.69;;;22.47;23.66
60019;BME280;45870;42.528;26.740;2022-10-16T12:57:29;100648.22;;;22.97;23.79
60019;BME280;45870;42.528;26.740;2022-10-16T13:22:32;100637.28;;;23.34;22.59
60019;BME280;45870;42.528;26.740;2022-10-16T13:27:53;100638.16;;;23.91;22.12
60019;BME280;45870;42.528;26.740;2022-10-16T13:30:20;100644.78;;;23.90;22.01
60019;BME280;45870;42.528;26.740;2022-10-16T13:32:50;100646.72;;;23.71;22.11
60019;BME280;45870;42.528;26.740;2022-10-16T13:35:26;100641.97;;;24.60;21.07
60019;BME280;45870;42.528;26.740;2022-10-16T13:40:59;100645.84;;;24.45;21.20
60019;BME280;45870;42.528;26.740;2022-10-16T13:43:33;100639.69;;;23.97;21.52
60019;BME280;45870;42.528;26.740;2022-10-16T13:46:05;100641.75;;;24.56;20.88
60019;BME280;45870;42.528;26.740;2022-10-16T13:48:34;100648.41;;;24.55;20.82
60019;BME280;45870;42.528;26.740;2022-10-16T13:51:04;100649.06;;;24.66;20.99
60019;BME280;45870;42.528;26.740;2022-10-16T13:53:33;100607.66;;;24.20;20.76
60019;BME280;45870;42.528;26.740;2022-10-16T13:55:59;100663.94;;;23.81;21.45
60019;BME280;45870;42.528;26.740;2022-10-16T13:58:26;100658.94;;;24.02;21.43
60019;BME280;45870;42.528;26.740;2022-10-16T14:01:00;100628.63;;;22.99;22.16
60019;BME280;45870;42.528;26.740;2022-10-16T14:03:27;100662.13;;;23.29;22.56
60019;BME280;45870;42.528;26.740;2022-10-16T14:05:57;100662.28;;;24.18;21.34
60019;BME280;45870;42.528;26.740;2022-10-16T14:08:25;100657.22;;;24.71;20.84
60019;BME280;45870;42.528;26.740;2022-10-16T14:10:56;100657.56;;;24.00;21.33
60019;BME280;45870;42.528;26.740;2022-10-16T14:13:32;100615.94;;;23.82;21.61
60019;BME280;45870;42.528;26.740;2022-10-16T14:16:05;100599.59;;;23.11;22.07
60019;BME280;45870;42.528;26.740;2022-10-16T14:18:32;100658.69;;;23.61;22.11
60019;BME280;45870;42.528;26.740;2022-10-16T14:21:12;100641.41;;;24.12;21.10
60019;BME280;45870;42.528;26.740;2022-10-16T14:23:41;100663.69;;;23.59;22.04
60019;BME280;45870;42.528;26.740;2022-10-16T14:28:36;100641.94;;;23.58;21.91
60019;BME280;45870;42.528;26.740;2022-10-16T14:31:24;100669.97;;;23.83;21.98
60019;BME280;45870;42.528;26.740;2022-10-16T14:33:50;100667.28;;;22.60;23.25
60019;BME280;45870;42.528;26.740;2022-10-16T14:36:16;100672.53;;;23.14;22.66
60019;BME280;45870;42.528;26.740;2022-10-16T14:41:29;100680.16;;;23.40;22.47
60019;BME280;45870;42.528;26.740;2022-10-16T14:43:58;100687.47;;;22.16;23.83